createdAt,value
2023-01-01T00:00:48.585Z,97.90
2023-01-01T00:03:16.096Z,97.40
2023-01-01T00:05:43.433Z,97.20
2023-01-01T00:08:10.814Z,97.30
2023-01-01T00:10:38.198Z,97.20
2023-01-01T00:13:05.827Z,97.20
2023-01-01T00:15:33.625Z,97.20
2023-01-01T00:18:00.989Z,97.40
2023-01-01T00:20:34.727Z,97.20
2023-01-01T00:23:03.223Z,97.30
2023-01-01T00:25:32.638Z,97.10
2023-01-01T00:28:00.199Z,97.20
2023-01-01T00:30:27.676Z,97.00
2023-01-01T00:32:56.293Z,96.80
2023-01-01T00:35:25.539Z,96.80
2023-01-01T00:37:53.774Z,96.70
2023-01-01T00:40:21.614Z,96.50
2023-01-01T00:42:48.950Z,96.40
2023-01-01T00:45:21.362Z,96.40
2023-01-01T00:47:53.676Z,96.20
2023-01-01T00:50:21.332Z,96.30
2023-01-01T00:52:49.653Z,96.10
2023-01-01T00:55:17.140Z,96.00
2023-01-01T00:57:44.526Z,96.00
2023-01-01T01:00:12.954Z,96.00
2023-01-01T01:02:40.562Z,96.00
2023-01-01T01:05:08.734Z,96.00
2023-01-01T01:07:37.416Z,95.80
2023-01-01T01:10:05.733Z,95.60
2023-01-01T01:12:35.156Z,95.40
2023-01-01T01:15:03.572Z,95.40
2023-01-01T01:17:30.897Z,95.40
2023-01-01T01:19:58.323Z,95.20
2023-01-01T01:22:28.943Z,95.40
2023-01-01T01:24:57.540Z,95.30
2023-01-01T01:27:25.409Z,95.10
2023-01-01T01:29:53.343Z,95.30
2023-01-01T01:32:21.099Z,95.20
2023-01-01T01:34:48.426Z,95.10
2023-01-01T01:37:15.907Z,95.10
2023-01-01T01:39:43.289Z,95.50
2023-01-01T01:42:18.056Z,96.00
2023-01-01T01:45:00.988Z,96.40
2023-01-01T01:47:55.792Z,96.50
2023-01-01T01:50:41.867Z,96.50
2023-01-01T01:53:24.993Z,96.60
2023-01-01T01:55:56.544Z,96.90
2023-01-01T01:58:26.731Z,97.20
2023-01-01T02:00:55.216Z,97.30
2023-01-01T02:03:33.996Z,97.30
2023-01-01T02:06:02.068Z,97.30
2023-01-01T02:08:30.277Z,97.40
2023-01-01T02:10:57.647Z,97.10
2023-01-01T02:13:25.030Z,97.30
2023-01-01T02:15:55.808Z,97.60
2023-01-01T02:18:36.521Z,97.50
2023-01-01T02:21:10.420Z,97.70
2023-01-01T02:23:49.759Z,97.40
2023-01-01T02:26:38.572Z,97.30
2023-01-01T02:29:25.738Z,97.40
2023-01-01T02:32:11.007Z,97.30
2023-01-01T02:34:47.689Z,97.30
2023-01-01T02:37:17.425Z,97.30
2023-01-01T02:39:57.217Z,97.30
2023-01-01T02:42:28.788Z,97.40
2023-01-01T02:44:59.229Z,97.40
2023-01-01T02:47:26.652Z,97.40
2023-01-01T02:50:23.904Z,97.90
2023-01-01T02:53:14.924Z,98.20
2023-01-01T02:55:54.505Z,98.60
2023-01-01T02:59:03.693Z,98.40
2023-01-01T03:01:59.463Z,98.50
2023-01-01T03:04:39.745Z,98.30
2023-01-01T03:07:17.545Z,98.70
2023-01-01T03:09:50.778Z,98.90
2023-01-01T03:12:43.196Z,98.60
2023-01-01T03:15:26.913Z,99.40
2023-01-01T03:18:08.711Z,99.40
2023-01-01T03:20:40.437Z,99.60
2023-01-01T03:23:13.980Z,99.40
2023-01-01T03:25:52.496Z,99.10
2023-01-01T03:28:44.386Z,99.10
2023-01-01T03:31:17.249Z,98.90
2023-01-01T03:33:51.479Z,99.30
2023-01-01T03:36:24.491Z,99.20
2023-01-01T03:39:07.383Z,99.20
2023-01-01T03:42:17.972Z,98.90
2023-01-01T03:44:54.004Z,98.50
2023-01-01T03:47:21.459Z,97.80
2023-01-01T03:49:48.774Z,97.40
2023-01-01T03:53:02.032Z,96.90
2023-01-01T03:55:38.453Z,97.00
2023-01-01T03:58:41.384Z,98.40
2023-01-01T04:01:17.081Z,99.00
2023-01-01T04:03:44.792Z,99.60
2023-01-01T04:06:12.223Z,99.80
2023-01-01T04:08:40.027Z,99.80
2023-01-01T04:11:36.811Z,99.40
2023-01-01T04:14:04.531Z,99.00
2023-01-01T04:16:32.655Z,98.80
2023-01-01T04:19:00.038Z,98.60
2023-01-01T04:21:27.367Z,98.40
2023-01-01T04:23:54.726Z,98.60
2023-01-01T04:26:21.987Z,99.00
2023-01-01T04:28:49.335Z,98.50
2023-01-01T04:31:16.750Z,98.60
2023-01-01T04:33:44.151Z,98.50
2023-01-01T04:36:11.502Z,98.50
2023-01-01T04:38:38.870Z,98.30
2023-01-01T04:41:06.254Z,98.40
2023-01-01T04:43:33.616Z,98.40
2023-01-01T04:46:03.591Z,98.30
2023-01-01T04:48:35.585Z,98.40
2023-01-01T04:51:04.540Z,98.40
2023-01-01T04:53:34.091Z,98.20
2023-01-01T04:56:19.085Z,98.20
2023-01-01T04:58:47.242Z,98.00
2023-01-01T05:01:18.019Z,97.90
2023-01-01T05:03:45.864Z,97.80
2023-01-01T05:06:14.054Z,98.50
2023-01-01T05:08:44.367Z,98.00
2023-01-01T05:11:14.711Z,98.20
2023-01-01T05:13:45.251Z,98.10
2023-01-01T05:16:14.813Z,97.60
2023-01-01T05:18:43.311Z,97.60
2023-01-01T05:21:22.759Z,97.50
2023-01-01T05:23:54.979Z,97.30
2023-01-01T05:26:24.262Z,97.40
2023-01-01T05:28:51.626Z,97.10
2023-01-01T05:31:21.440Z,97.10
2023-01-01T05:33:49.991Z,96.80
2023-01-01T05:36:23.068Z,96.80
2023-01-01T05:38:51.547Z,96.40
2023-01-01T05:41:20.750Z,96.30
2023-01-01T05:43:48.560Z,96.30
2023-01-01T05:46:19.715Z,96.30
2023-01-01T05:48:48.149Z,96.40
2023-01-01T05:51:18.113Z,96.20
2023-01-01T05:53:45.773Z,96.30
2023-01-01T05:56:14.139Z,96.20
2023-01-01T05:58:42.167Z,96.10
2023-01-01T06:01:21.648Z,96.00
2023-01-01T06:03:49.904Z,95.80
2023-01-01T06:06:22.413Z,96.00
2023-01-01T06:08:58.406Z,96.00
2023-01-01T06:11:26.452Z,95.80
2023-01-01T06:13:55.831Z,95.80
2023-01-01T06:16:23.503Z,95.60
2023-01-01T06:18:51.008Z,95.90
2023-01-01T06:21:21.037Z,95.60
2023-01-01T06:23:49.146Z,95.70
2023-01-01T06:26:22.733Z,95.90
2023-01-01T06:28:50.543Z,96.10
2023-01-01T06:31:20.336Z,96.00
2023-01-01T06:33:49.078Z,95.80
2023-01-01T06:36:19.286Z,95.60
2023-01-01T06:38:49.106Z,95.50
2023-01-01T06:41:19.086Z,95.20
2023-01-01T06:43:47.075Z,95.40
2023-01-01T06:46:32.386Z,95.50
2023-01-01T06:49:05.449Z,95.50
2023-01-01T06:51:36.934Z,95.50
2023-01-01T06:54:05.122Z,95.40
2023-01-01T06:56:32.999Z,95.50
2023-01-01T06:59:00.984Z,95.60
2023-01-01T07:01:33.605Z,95.80
2023-01-01T07:04:03.483Z,96.00
2023-01-01T07:06:32.419Z,96.20
2023-01-01T07:08:59.904Z,96.10
2023-01-01T07:11:28.527Z,96.40
2023-01-01T07:13:55.881Z,96.50
2023-01-01T07:16:23.980Z,96.60
2023-01-01T07:18:52.138Z,97.00
2023-01-01T07:21:34.102Z,96.90
2023-01-01T07:24:03.460Z,97.10
2023-01-01T07:26:32.320Z,97.10
2023-01-01T07:29:06.894Z,97.30
2023-01-01T07:31:37.329Z,97.30
2023-01-01T07:34:05.628Z,97.20
2023-01-01T07:36:33.009Z,96.90
2023-01-01T07:39:00.401Z,96.90
2023-01-01T07:41:27.706Z,97.00
2023-01-01T07:43:55.103Z,97.10
2023-01-01T07:46:22.471Z,96.90
2023-01-01T07:48:49.835Z,96.80
2023-01-01T07:51:17.138Z,97.00
2023-01-01T07:53:44.527Z,96.80
2023-01-01T07:56:12.043Z,96.90
2023-01-01T07:58:40.628Z,97.00
2023-01-01T08:01:13.396Z,97.20
2023-01-01T08:03:40.916Z,97.10
2023-01-01T08:06:12.588Z,97.20
2023-01-01T08:08:40.438Z,96.90
2023-01-01T08:11:07.860Z,96.90
2023-01-01T08:13:35.263Z,96.90
2023-01-01T08:16:03.158Z,96.50
2023-01-01T08:18:30.574Z,96.60
2023-01-01T08:20:57.937Z,96.30
2023-01-01T08:23:25.420Z,96.00
2023-01-01T08:25:52.779Z,95.90
2023-01-01T08:28:20.371Z,95.90
2023-01-01T08:30:47.619Z,95.80
2023-01-01T08:33:15.021Z,95.70
2023-01-01T08:35:45.518Z,95.60
2023-01-01T08:38:15.087Z,95.50
2023-01-01T08:40:42.420Z,94.90
2023-01-01T08:43:09.745Z,94.70
2023-01-01T08:45:37.036Z,94.70
2023-01-01T08:48:04.740Z,94.90
2023-01-01T08:50:32.057Z,94.60
2023-01-01T08:52:59.703Z,94.50
2023-01-01T08:55:27.315Z,94.30
2023-01-01T08:57:54.667Z,94.30
2023-01-01T09:00:22.292Z,94.40
2023-01-01T09:02:49.678Z,94.30
2023-01-01T09:05:17.097Z,94.40
2023-01-01T09:07:44.448Z,94.50
2023-01-01T09:10:11.779Z,94.30
2023-01-01T09:12:39.153Z,94.20
2023-01-01T09:15:07.292Z,94.20
2023-01-01T09:17:34.700Z,94.10
2023-01-01T09:20:02.036Z,94.10
2023-01-01T09:22:29.364Z,94.30
2023-01-01T09:24:56.683Z,94.10
2023-01-01T09:27:24.045Z,93.80
2023-01-01T09:29:51.348Z,94.10
2023-01-01T09:32:19.107Z,94.00
2023-01-01T09:34:52.129Z,93.90
2023-01-01T09:37:20.051Z,94.00
2023-01-01T09:39:47.409Z,93.80
2023-01-01T09:42:45.405Z,94.20
2023-01-01T09:45:40.890Z,93.60
2023-01-01T09:48:12.873Z,93.60
2023-01-01T09:50:41.550Z,93.80
2023-01-01T09:53:27.682Z,93.40
2023-01-01T09:56:03.420Z,93.40
2023-01-01T09:58:36.930Z,93.20
2023-01-01T10:01:17.409Z,93.20
2023-01-01T10:03:51.521Z,92.90
2023-01-01T10:06:30.337Z,92.60
2023-01-01T10:09:12.262Z,93.00
2023-01-01T10:11:54.726Z,92.90
2023-01-01T10:14:32.807Z,92.80
2023-01-01T10:17:03.539Z,92.70
2023-01-01T10:19:37.170Z,92.30
2023-01-01T10:22:11.395Z,92.40
2023-01-01T10:24:46.525Z,92.10
2023-01-01T10:27:46.881Z,92.10
2023-01-01T10:30:18.531Z,92.20
2023-01-01T10:32:50.273Z,92.30
2023-01-01T10:35:24.083Z,91.70
2023-01-01T10:37:55.760Z,92.00
2023-01-01T10:40:26.579Z,92.10
2023-01-01T10:42:56.806Z,91.60
2023-01-01T10:45:43.448Z,92.00
2023-01-01T10:48:22.996Z,92.10
2023-01-01T10:51:05.982Z,92.00
2023-01-01T10:53:42.546Z,91.80
2023-01-01T10:56:21.204Z,91.60
2023-01-01T10:58:56.503Z,91.40
2023-01-01T11:01:26.493Z,91.40
2023-01-01T11:04:29.508Z,91.40
2023-01-01T11:06:56.905Z,91.20
2023-01-01T11:09:31.719Z,91.20
2023-01-01T11:12:07.988Z,91.20
2023-01-01T11:14:44.122Z,91.30
2023-01-01T11:17:11.529Z,91.30
2023-01-01T11:19:45.653Z,91.10
2023-01-01T11:22:57.130Z,91.20
2023-01-01T11:25:32.635Z,90.90
2023-01-01T11:28:21.964Z,90.90
2023-01-01T11:31:20.881Z,90.80
2023-01-01T11:33:51.235Z,90.80
2023-01-01T11:36:30.660Z,90.60
2023-01-01T11:39:20.696Z,91.20
2023-01-01T11:41:50.890Z,91.30
2023-01-01T11:44:41.845Z,91.20
2023-01-01T11:47:22.697Z,91.10
2023-01-01T11:49:55.900Z,90.80
2023-01-01T11:52:46.756Z,91.20
2023-01-01T11:55:54.302Z,90.80
2023-01-01T11:58:34.428Z,90.50
2023-01-01T12:01:06.437Z,90.70
2023-01-01T12:03:59.266Z,90.70
2023-01-01T12:06:34.185Z,90.40
2023-01-01T12:09:33.150Z,90.20
2023-01-01T12:12:21.163Z,89.90
2023-01-01T12:15:03.586Z,89.10
2023-01-01T12:17:41.346Z,90.00
2023-01-01T12:20:23.284Z,89.90
2023-01-01T12:22:51.248Z,89.50
2023-01-01T12:25:19.977Z,89.50
2023-01-01T12:28:12.430Z,90.00
2023-01-01T12:31:04.792Z,88.70
2023-01-01T12:34:18.872Z,89.40
2023-01-01T12:37:13.414Z,89.10
2023-01-01T12:40:43.885Z,89.00
2023-01-01T12:43:18.447Z,89.70
2023-01-01T12:46:04.093Z,89.80
2023-01-01T12:49:02.751Z,89.80
2023-01-01T12:51:52.854Z,90.00
2023-01-01T12:54:59.449Z,90.20
2023-01-01T12:57:35.962Z,90.10
2023-01-01T13:00:12.615Z,90.40
2023-01-01T13:02:51.029Z,90.30
2023-01-01T13:05:24.055Z,90.20
2023-01-01T13:07:58.215Z,90.50
2023-01-01T13:10:48.873Z,90.70
2023-01-01T13:13:17.580Z,90.50
2023-01-01T13:15:50.386Z,90.80
2023-01-01T13:18:26.426Z,90.70
2023-01-01T13:21:03.563Z,91.10
2023-01-01T13:23:53.991Z,91.60
2023-01-01T13:26:41.868Z,91.60
2023-01-01T13:29:32.379Z,91.70
2023-01-01T13:32:05.190Z,91.60
2023-01-01T13:34:38.744Z,91.40
2023-01-01T13:37:15.269Z,91.70
2023-01-01T13:40:03.077Z,91.80
2023-01-01T13:43:06.682Z,92.10
2023-01-01T13:49:01.868Z,92.40
2023-01-01T13:52:05.401Z,92.30
2023-01-01T13:55:34.886Z,92.50
2023-01-01T13:58:27.181Z,92.40
2023-01-01T14:01:36.868Z,92.40
2023-01-01T14:04:08.635Z,92.80
2023-01-01T14:06:40.665Z,92.90
2023-01-01T14:09:19.597Z,92.90
2023-01-01T14:11:46.882Z,93.20
2023-01-01T14:14:40.330Z,93.00
2023-01-01T14:17:08.575Z,93.10
2023-01-01T14:19:39.573Z,93.20
2023-01-01T14:22:09.088Z,93.20
2023-01-01T14:24:42.436Z,93.70
2023-01-01T14:27:13.456Z,93.80
2023-01-01T14:29:42.125Z,94.10
2023-01-01T14:32:15.266Z,94.30
2023-01-01T14:34:44.599Z,94.80
2023-01-01T14:37:25.568Z,95.10
2023-01-01T14:40:29.199Z,95.20
2023-01-01T14:43:10.296Z,95.20
2023-01-01T14:45:43.635Z,95.70
2023-01-01T14:48:19.190Z,96.20
2023-01-01T14:50:49.767Z,96.90
2023-01-01T14:53:21.277Z,97.60
2023-01-01T14:55:49.934Z,98.20
2023-01-01T14:58:20.730Z,98.10
2023-01-01T15:00:48.683Z,98.50
2023-01-01T15:03:21.672Z,98.60
2023-01-01T15:06:00.683Z,98.50
2023-01-01T15:08:28.616Z,99.70
2023-01-01T15:10:57.152Z,99.90
2023-01-01T15:13:26.832Z,99.90
2023-01-01T15:15:56.189Z,99.90
2023-01-01T15:18:40.087Z,99.90
2023-01-01T15:21:33.211Z,99.90
2023-01-01T15:24:09.416Z,99.90
2023-01-01T15:26:57.605Z,99.90
2023-01-01T15:29:38.390Z,99.90
2023-01-01T15:32:10.995Z,99.30
2023-01-01T15:34:50.003Z,99.10
2023-01-01T15:37:38.096Z,99.90
2023-01-01T15:40:14.429Z,99.90
2023-01-01T15:42:48.844Z,99.90
2023-01-01T15:45:31.289Z,99.90
2023-01-01T15:48:30.709Z,99.90
2023-01-01T15:51:14.903Z,99.90
2023-01-01T15:54:04.999Z,99.90
2023-01-01T15:56:39.185Z,99.90
2023-01-01T15:59:22.166Z,99.80
2023-01-01T16:01:50.078Z,99.30
2023-01-01T16:04:28.698Z,99.40
2023-01-01T16:06:58.235Z,99.60
2023-01-01T16:09:25.679Z,99.70
2023-01-01T16:11:55.323Z,99.90
2023-01-01T16:14:23.503Z,99.90
2023-01-01T16:17:00.858Z,99.90
2023-01-01T16:19:31.427Z,99.90
2023-01-01T16:21:58.949Z,99.90
2023-01-01T16:24:26.278Z,98.90
2023-01-01T16:26:53.683Z,99.30
2023-01-01T16:29:20.989Z,99.90
2023-01-01T16:31:48.583Z,99.90
2023-01-01T16:34:16.251Z,99.90
2023-01-01T16:36:45.357Z,99.90
2023-01-01T16:39:12.831Z,99.90
2023-01-01T16:41:42.161Z,99.90
2023-01-01T16:44:13.515Z,99.90
2023-01-01T16:46:41.212Z,99.90
2023-01-01T16:49:08.706Z,99.90
2023-01-01T16:51:40.602Z,99.90
2023-01-01T16:54:10.716Z,99.90
2023-01-01T16:56:38.175Z,99.90
2023-01-01T16:59:05.604Z,99.90
2023-01-01T17:01:33.160Z,99.90
2023-01-01T17:04:00.754Z,99.90
2023-01-01T17:06:28.120Z,99.90
2023-01-01T17:08:55.468Z,99.90
2023-01-01T17:11:24.924Z,99.90
2023-01-01T17:13:52.834Z,99.90
2023-01-01T17:16:26.940Z,99.90
2023-01-01T17:21:44.646Z,99.80
2023-01-01T17:24:12.022Z,99.70
2023-01-01T17:26:39.474Z,99.80
2023-01-01T17:29:07.723Z,99.80
2023-01-01T17:31:35.763Z,99.80
2023-01-01T17:34:03.804Z,99.70
2023-01-01T17:36:31.289Z,99.60
2023-01-01T17:38:58.919Z,99.40
2023-01-01T17:41:26.248Z,99.20
2023-01-01T17:43:54.007Z,99.50
2023-01-01T17:46:30.998Z,99.50
2023-01-01T17:48:59.572Z,99.80
2023-01-01T17:51:27.584Z,99.50
2023-01-01T17:53:55.840Z,99.50
2023-01-01T17:56:24.116Z,99.90
2023-01-01T17:58:53.874Z,99.50
2023-01-01T18:01:33.108Z,99.20
2023-01-01T18:04:03.522Z,99.40
2023-01-01T18:06:34.070Z,98.60
2023-01-01T18:09:05.720Z,98.30
2023-01-01T18:11:34.041Z,98.40
2023-01-01T18:14:03.182Z,98.20
2023-01-01T18:16:32.543Z,98.20
2023-01-01T18:19:01.455Z,98.50
2023-01-01T18:21:28.742Z,98.90
2023-01-01T18:23:57.177Z,99.00
2023-01-01T18:26:27.497Z,99.10
2023-01-01T18:29:02.590Z,99.00
2023-01-01T18:31:32.193Z,99.50
2023-01-01T18:34:01.611Z,99.40
2023-01-01T18:36:30.876Z,99.60
2023-01-01T18:39:08.816Z,99.00
2023-01-01T18:42:19.865Z,99.20
2023-01-01T18:44:47.156Z,99.60
2023-01-01T18:47:17.560Z,99.60
2023-01-01T18:49:49.140Z,99.90
2023-01-01T18:52:25.625Z,99.80
2023-01-01T18:55:10.108Z,99.80
2023-01-01T18:57:38.089Z,99.90
2023-01-01T19:00:25.948Z,99.60
2023-01-01T19:02:57.296Z,99.50
2023-01-01T19:05:33.968Z,99.50
2023-01-01T19:08:13.623Z,99.90
2023-01-01T19:10:57.592Z,99.60
2023-01-01T19:13:35.354Z,99.90
2023-01-01T19:16:24.207Z,99.90
2023-01-01T19:18:52.951Z,99.30
2023-01-01T19:21:23.559Z,99.20
2023-01-01T19:23:56.413Z,99.00
2023-01-01T19:26:27.038Z,99.10
2023-01-01T19:29:33.504Z,99.60
2023-01-01T19:32:00.848Z,99.30
2023-01-01T19:34:28.215Z,99.60
2023-01-01T19:36:55.530Z,99.80
2023-01-01T19:39:22.920Z,99.90
2023-01-01T19:41:52.385Z,99.90
2023-01-01T19:44:24.703Z,99.90
2023-01-01T19:46:52.504Z,99.90
2023-01-01T19:49:20.030Z,99.90
2023-01-01T19:51:47.325Z,99.90
2023-01-01T19:54:14.908Z,99.90
2023-01-01T19:56:42.423Z,99.90
2023-01-01T19:59:09.779Z,99.90
2023-01-01T20:01:37.573Z,99.90
2023-01-01T20:04:05.337Z,99.90
2023-01-01T20:06:36.209Z,99.90
2023-01-01T20:09:03.935Z,99.90
2023-01-01T20:11:32.155Z,99.90
2023-01-01T20:13:59.618Z,99.90
2023-01-01T20:16:27.012Z,99.90
2023-01-01T20:18:54.402Z,99.90
2023-01-01T20:21:40.405Z,99.90
2023-01-01T20:24:07.872Z,99.90
2023-01-01T20:26:35.191Z,99.90
2023-01-01T20:29:20.614Z,99.90
2023-01-01T20:31:50.106Z,99.90
2023-01-01T20:34:17.553Z,99.90
2023-01-01T20:37:05.225Z,99.90
2023-01-01T20:39:32.886Z,99.90
2023-01-01T20:42:00.229Z,99.90
2023-01-01T20:44:27.789Z,99.90
2023-01-01T20:46:55.100Z,99.90
2023-01-01T20:49:22.648Z,99.90
2023-01-01T20:51:52.114Z,99.90
2023-01-01T20:54:23.714Z,99.90
2023-01-01T20:56:51.876Z,99.90
2023-01-01T20:59:37.266Z,99.90
2023-01-01T21:02:07.717Z,99.90
2023-01-01T21:04:39.827Z,99.90
2023-01-01T21:07:12.195Z,99.90
2023-01-01T21:09:40.907Z,99.90
2023-01-01T21:12:09.131Z,99.90
2023-01-01T21:14:36.574Z,99.90
2023-01-01T21:17:22.911Z,99.90
2023-01-01T21:19:53.882Z,99.90
2023-01-01T21:22:21.490Z,99.90
2023-01-01T21:24:54.087Z,99.90
2023-01-01T21:27:30.550Z,99.90
2023-01-01T21:29:58.807Z,99.90
2023-01-01T21:32:46.850Z,99.90
2023-01-01T21:35:30.961Z,99.90
2023-01-01T21:37:59.712Z,99.90
2023-01-01T21:41:12.388Z,99.90
2023-01-01T21:43:45.580Z,99.90
2023-01-01T21:46:22.589Z,99.90
2023-01-01T21:48:58.870Z,99.90
2023-01-01T21:51:38.058Z,99.90
2023-01-01T21:54:19.204Z,99.90
2023-01-01T21:56:55.605Z,99.90
2023-01-01T21:59:35.396Z,99.90
2023-01-01T22:02:29.126Z,99.90
2023-01-01T22:04:56.739Z,99.90
2023-01-01T22:07:57.424Z,99.90
2023-01-01T22:10:22.933Z,99.90
2023-01-01T22:12:58.072Z,99.90
2023-01-01T22:15:40.109Z,99.90
2023-01-01T22:18:22.344Z,99.90
2023-01-01T22:20:49.706Z,99.90
2023-01-01T22:23:23.921Z,99.90
2023-01-01T22:25:52.493Z,99.90
2023-01-01T22:28:30.112Z,99.90
2023-01-01T22:31:02.113Z,99.90
2023-01-01T22:33:41.856Z,99.90
2023-01-01T22:36:30.460Z,99.90
2023-01-01T22:39:01.975Z,99.90
2023-01-01T22:41:29.369Z,99.90
2023-01-01T22:44:01.486Z,99.90
2023-01-01T22:46:37.154Z,99.90
2023-01-01T22:49:19.605Z,99.90
2023-01-01T22:51:47.753Z,99.90
2023-01-01T22:54:15.133Z,99.90
2023-01-01T22:56:42.437Z,99.90
2023-01-01T22:59:09.786Z,99.90
2023-01-01T23:01:37.138Z,99.90
2023-01-01T23:04:04.792Z,99.90
2023-01-01T23:06:33.131Z,99.90
2023-01-01T23:09:00.643Z,99.90
2023-01-01T23:11:28.802Z,99.90
2023-01-01T23:14:15.038Z,99.90
2023-01-01T23:16:42.337Z,99.90
2023-01-01T23:19:09.678Z,99.90
2023-01-01T23:21:38.299Z,99.90
2023-01-01T23:24:10.633Z,99.90
2023-01-01T23:26:39.932Z,99.90
2023-01-01T23:29:09.949Z,99.90
2023-01-01T23:31:39.433Z,99.90
2023-01-01T23:34:07.056Z,99.90
2023-01-01T23:36:34.873Z,99.90
2023-01-01T23:39:02.259Z,99.90
2023-01-01T23:41:29.581Z,99.90
2023-01-01T23:43:56.942Z,99.90
2023-01-01T23:46:24.800Z,99.90
2023-01-01T23:48:53.882Z,99.90
2023-01-01T23:51:21.443Z,99.90
2023-01-01T23:53:48.774Z,99.90
2023-01-01T23:56:16.211Z,99.90
2023-01-01T23:58:43.818Z,99.90
